Time;durP1;ratioP1;P1;durP2;ratioP2;P2;SDS_P1;SDS_P2;PMS_P1;PMS_P2;Temp;Humidity;BMP_temperature;BMP_pressure;BME280_temperature;BME280_humidity;BME280_pressure;Samples;Min_cycle;Max_cycle;Signal;HPM_P1;HPM_P2
2021/10/03 00:00:00;;;;;;;7.75;4.00;;;15.80;99.90;;;;;;5096621;28;20404;-68
2021/10/03 00:02:29;;;;;;;5.65;3.95;;;15.80;99.90;;;;;;5096821;28;20186;-68
2021/10/03 00:04:56;;;;;;;5.30;3.15;;;15.80;99.90;;;;;;5096730;28;20051;-68
2021/10/03 00:07:22;;;;;;;7.15;3.72;;;15.80;99.90;;;;;;5097043;28;20040;-68
2021/10/03 00:09:53;;;;;;;5.88;4.13;;;15.80;99.90;;;;;;5096547;28;20150;-68
2021/10/03 00:12:20;;;;;;;5.13;3.42;;;15.90;99.90;;;;;;5096475;28;20044;-69
2021/10/03 00:14:46;;;;;;;4.82;3.60;;;15.80;99.90;;;;;;5097182;28;20129;-68
2021/10/03 00:17:12;;;;;;;6.70;3.85;;;15.80;99.90;;;;;;5095271;28;20074;-69
2021/10/03 00:19:38;;;;;;;5.07;4.00;;;15.80;99.90;;;;;;5094990;28;20071;-69
2021/10/03 00:22:05;;;;;;;6.30;3.85;;;15.80;99.90;;;;;;5096891;28;20051;-69
2021/10/03 00:24:30;;;;;;;5.88;3.83;;;15.90;99.90;;;;;;5096608;28;20051;-68
2021/10/03 00:26:57;;;;;;;4.80;3.22;;;15.80;99.90;;;;;;5096877;28;20098;-69
2021/10/03 00:29:24;;;;;;;4.68;3.47;;;15.90;99.90;;;;;;5096033;28;20032;-69
2021/10/03 00:31:50;;;;;;;6.45;3.40;;;15.90;99.90;;;;;;5096718;28;20480;-68
2021/10/03 00:34:16;;;;;;;5.75;3.33;;;15.90;99.90;;;;;;5096466;28;20060;-68
2021/10/03 00:36:42;;;;;;;4.93;2.75;;;15.90;99.90;;;;;;5095119;28;20097;-68
2021/10/03 00:39:07;;;;;;;4.22;2.83;;;15.90;99.90;;;;;;5094929;28;20036;-69
2021/10/03 00:41:33;;;;;;;4.55;2.58;;;15.90;99.90;;;;;;5096231;28;20537;-68
2021/10/03 00:43:59;;;;;;;4.15;2.50;;;16.00;99.90;;;;;;5096074;28;20093;-68
2021/10/03 00:46:25;;;;;;;3.20;2.40;;;16.00;99.90;;;;;;5096121;28;20040;-68
2021/10/03 00:48:51;;;;;;;4.35;2.67;;;16.00;99.90;;;;;;5095787;28;20154;-68
2021/10/03 00:51:16;;;;;;;4.00;2.38;;;16.00;99.90;;;;;;5095726;28;20040;-69
2021/10/03 00:53:42;;;;;;;4.95;2.50;;;16.00;99.90;;;;;;5095856;28;20388;-68
2021/10/03 00:56:12;;;;;;;4.32;2.40;;;15.90;99.90;;;;;;5095836;28;20430;-69
2021/10/03 00:58:38;;;;;;;3.13;2.35;;;15.90;99.90;;;;;;5095333;28;20048;-69
2021/10/03 01:01:04;;;;;;;2.45;1.90;;;15.90;99.90;;;;;;5095640;28;20384;-68
2021/10/03 01:03:30;;;;;;;3.10;2.10;;;16.00;99.90;;;;;;5094745;28;20048;-68
2021/10/03 01:05:55;;;;;;;2.30;1.70;;;15.90;99.90;;;;;;5095507;28;20043;-68
2021/10/03 01:08:21;;;;;;;3.65;1.92;;;16.00;99.90;;;;;;5095482;28;20040;-68
2021/10/03 01:10:46;;;;;;;2.58;1.73;;;16.00;99.90;;;;;;5095178;28;20048;-68
2021/10/03 01:13:12;;;;;;;3.85;2.75;;;16.00;99.90;;;;;;5094392;28;20442;-69
2021/10/03 01:15:44;;;;;;;4.25;1.92;;;16.00;99.90;;;;;;5095569;28;20068;-70
2021/10/03 01:18:10;;;;;;;3.40;1.70;;;16.00;99.90;;;;;;5094097;28;20484;-69
2021/10/03 01:20:37;;;;;;;2.33;1.70;;;15.90;99.90;;;;;;5095261;28;20044;-69
2021/10/03 01:23:05;;;;;;;3.00;1.60;;;15.90;99.90;;;;;;5095424;28;20089;-69
2021/10/03 01:25:33;;;;;;;3.90;1.65;;;15.90;99.90;;;;;;5094181;28;20075;-69
2021/10/03 01:28:00;;;;;;;4.68;1.60;;;16.00;99.90;;;;;;5094902;28;20127;-69
2021/10/03 01:30:26;;;;;;;2.03;1.58;;;16.00;99.90;;;;;;5094893;28;20036;-69
2021/10/03 01:32:52;;;;;;;2.97;1.40;;;16.10;99.90;;;;;;5095019;28;20093;-68
2021/10/03 01:35:19;;;;;;;2.60;1.70;;;16.10;99.90;;;;;;5095256;28;20036;-69
2021/10/03 01:37:45;;;;;;;3.80;1.38;;;16.10;99.90;;;;;;5095390;28;20570;-68
2021/10/03 01:40:12;;;;;;;1.95;1.50;;;16.20;99.90;;;;;;5094547;28;20040;-69
2021/10/03 01:42:39;;;;;;;5.00;1.63;;;16.20;99.90;;;;;;5093752;28;20388;-69
2021/10/03 01:45:07;;;;;;;1.83;1.15;;;16.20;99.90;;;;;;5095067;28;20032;-68
2021/10/03 01:47:33;;;;;;;2.08;1.50;;;16.20;99.90;;;;;;5094740;28;20044;-69
2021/10/03 01:49:59;;;;;;;1.88;1.40;;;16.20;99.90;;;;;;5094838;28;20092;-69
2021/10/03 01:52:25;;;;;;;2.35;1.45;;;16.20;99.90;;;;;;5093214;28;20085;-69
2021/10/03 01:54:50;;;;;;;4.88;2.08;;;16.20;99.90;;;;;;5093601;28;20044;-69
2021/10/03 01:57:16;;;;;;;2.45;1.30;;;16.20;99.90;;;;;;5093182;28;20047;-69
2021/10/03 01:59:42;;;;;;;3.42;1.52;;;16.20;99.90;;;;;;5092863;28;20051;-69
2021/10/03 02:02:07;;;;;;;3.70;1.60;;;16.20;99.90;;;;;;5094255;28;20431;-69
2021/10/03 02:04:33;;;;;;;3.58;1.55;;;16.10;99.90;;;;;;5093691;28;20032;-69
2021/10/03 02:06:59;;;;;;;2.97;1.17;;;16.10;99.90;;;;;;5094631;28;20032;-69
2021/10/03 02:09:26;;;;;;;2.65;1.10;;;16.20;99.90;;;;;;5094131;28;20043;-69
2021/10/03 02:11:59;;;;;;;2.00;1.33;;;16.20;99.90;;;;;;5094433;28;20036;-69
2021/10/03 02:14:30;;;;;;;2.70;1.50;;;16.10;99.90;;;;;;5093394;28;20341;-69
2021/10/03 02:16:59;;;;;;;2.33;1.45;;;16.10;99.90;;;;;;5094140;28;20200;-69
2021/10/03 02:19:26;;;;;;;2.88;1.35;;;16.10;99.90;;;;;;5093843;28;20119;-69
2021/10/03 02:21:53;;;;;;;3.75;1.40;;;16.10;99.90;;;;;;5094118;28;20435;-69
2021/10/03 02:24:19;;;;;;;2.05;1.13;;;16.10;99.90;;;;;;5094142;28;20071;-69
2021/10/03 02:26:45;;;;;;;1.45;1.10;;;16.10;99.90;;;;;;5092723;28;20084;-69
2021/10/03 02:29:10;;;;;;;1.63;1.13;;;16.10;99.90;;;;;;5093674;28;20036;-69
2021/10/03 02:31:36;;;;;;;1.20;0.90;;;16.10;99.90;;;;;;5093827;28;20040;-69
2021/10/03 02:34:03;;;;;;;1.42;1.02;;;16.20;99.90;;;;;;5094054;28;20480;-69
2021/10/03 02:36:28;;;;;;;1.52;1.13;;;16.10;99.90;;;;;;5093705;28;20036;-69
2021/10/03 02:38:55;;;;;;;3.30;1.30;;;16.20;99.90;;;;;;5092114;28;20043;-69
2021/10/03 02:41:22;;;;;;;2.03;1.02;;;16.10;99.90;;;;;;5093898;28;20035;-69
2021/10/03 02:43:52;;;;;;;2.38;1.13;;;16.20;99.90;;;;;;5092410;28;20044;-69
2021/10/03 02:46:19;;;;;;;2.60;1.40;;;16.20;99.90;;;;;;5093881;28;20036;-69
2021/10/03 02:48:49;;;;;;;1.77;1.17;;;16.10;99.90;;;;;;5093263;28;20047;-69
2021/10/03 02:51:17;;;;;;;1.83;1.30;;;16.10;99.90;;;;;;5093947;28;20377;-69
2021/10/03 02:53:44;;;;;;;2.95;1.40;;;16.10;99.90;;;;;;5093768;28;20036;-69
2021/10/03 02:56:10;;;;;;;2.90;1.40;;;16.10;99.90;;;;;;5092775;28;20039;-69
2021/10/03 02:58:35;;;;;;;1.77;1.52;;;16.10;99.90;;;;;;5093485;28;20468;-69
2021/10/03 03:01:01;;;;;;;3.80;1.80;;;16.10;99.90;;;;;;5093371;28;20040;-69
2021/10/03 03:03:26;;;;;;;4.47;1.40;;;16.10;99.90;;;;;;5092064;28;20074;-69
2021/10/03 03:05:52;;;;;;;2.92;1.88;;;16.20;99.90;;;;;;5093609;28;20043;-69
2021/10/03 03:08:17;;;;;;;2.75;1.77;;;16.20;99.90;;;;;;5093432;28;20040;-69
2021/10/03 03:10:43;;;;;;;2.55;1.52;;;16.20;99.90;;;;;;5092931;28;20032;-69
2021/10/03 03:13:09;;;;;;;3.10;1.77;;;16.20;99.90;;;;;;5093441;28;20036;-69
2021/10/03 03:15:35;;;;;;;2.45;1.58;;;16.20;99.90;;;;;;5093726;28;20110;-69
2021/10/03 03:18:00;;;;;;;3.70;1.60;;;16.20;99.90;;;;;;5093337;28;20043;-69
2021/10/03 03:20:26;;;;;;;1.80;1.50;;;16.20;99.90;;;;;;5091857;28;20051;-69
2021/10/03 03:22:52;;;;;;;2.65;1.77;;;16.20;99.90;;;;;;5091793;28;20047;-69
2021/10/03 03:25:19;;;;;;;2.13;1.50;;;16.20;99.90;;;;;;5093109;28;20162;-69
2021/10/03 03:27:44;;;;;;;2.35;1.60;;;16.20;99.90;;;;;;5093178;28;20047;-70
2021/10/03 03:30:12;;;;;;;2.25;1.40;;;16.20;99.90;;;;;;5092972;28;20032;-69
2021/10/03 03:32:38;;;;;;;2.13;1.40;;;16.20;99.90;;;;;;5091941;28;20129;-69
2021/10/03 03:35:05;;;;;;;2.33;1.40;;;16.20;99.90;;;;;;5093321;28;20476;-69
2021/10/03 03:37:31;;;;;;;2.45;1.30;;;16.20;99.90;;;;;;5092077;28;20489;-69
2021/10/03 03:39:57;;;;;;;2.90;1.42;;;16.20;99.90;;;;;;5091927;28;20043;-69
2021/10/03 03:42:22;;;;;;;1.88;1.30;;;16.20;99.90;;;;;;5092868;28;20097;-69
2021/10/03 03:44:48;;;;;;;1.40;1.00;;;16.20;99.90;;;;;;5091642;28;20048;-69
2021/10/03 03:47:13;;;;;;;1.63;1.08;;;16.30;99.90;;;;;;5091670;28;20040;-69
2021/10/03 03:49:39;;;;;;;2.20;1.40;;;16.30;99.90;;;;;;5074804;28;20040;-70
2021/10/03 03:52:06;;;;;;;4.95;1.58;;;16.30;99.90;;;;;;5093180;28;20392;-70
2021/10/03 03:54:31;;;;;;;5.05;1.52;;;16.30;99.90;;;;;;5093199;28;20467;-69
2021/10/03 03:56:57;;;;;;;6.53;1.77;;;16.40;99.90;;;;;;5092928;28;20076;-70
2021/10/03 03:59:25;;;;;;;2.75;1.60;;;16.30;99.90;;;;;;5092463;28;20046;-70
2021/10/03 04:01:52;;;;;;;2.10;1.23;;;16.20;99.90;;;;;;5093051;28;20093;-69
2021/10/03 04:04:17;;;;;;;2.25;1.10;;;16.20;99.90;;;;;;5093007;28;20043;-69
2021/10/03 04:06:43;;;;;;;4.93;1.20;;;16.10;99.90;;;;;;5092816;28;20054;-70
2021/10/03 04:09:08;;;;;;;2.08;1.00;;;16.00;99.90;;;;;;5091170;28;20036;-70
2021/10/03 04:11:34;;;;;;;1.73;1.38;;;16.00;99.90;;;;;;5092921;28;20036;-70
2021/10/03 04:14:00;;;;;;;2.45;1.20;;;15.90;99.90;;;;;;5092779;28;20096;-70
2021/10/03 04:16:25;;;;;;;4.65;2.50;;;15.90;99.90;;;;;;5092572;28;20044;-70
2021/10/03 04:18:51;;;;;;;2.17;1.50;;;15.80;99.90;;;;;;5092590;28;20040;-70
2021/10/03 04:21:16;;;;;;;4.38;1.40;;;15.80;99.90;;;;;;5092531;28;20051;-70
2021/10/03 04:23:42;;;;;;;3.80;1.20;;;15.80;99.90;;;;;;5092562;28;20036;-69
2021/10/03 04:26:08;;;;;;;2.97;1.20;;;15.70;99.90;;;;;;5092790;28;20055;-70
2021/10/03 04:28:33;;;;;;;6.55;1.35;;;15.70;99.90;;;;;;5095279;28;20073;-70
2021/10/03 04:30:59;;;;;;;3.13;1.08;;;15.70;99.90;;;;;;5096350;28;20040;-70
2021/10/03 04:33:25;;;;;;;7.75;1.55;;;15.60;99.90;;;;;;5096240;28;20040;-70
2021/10/03 04:35:50;;;;;;;3.13;0.88;;;15.60;99.90;;;;;;5095001;28;20050;-70
2021/10/03 04:38:16;;;;;;;1.40;0.88;;;15.50;99.90;;;;;;5096097;28;20400;-70
2021/10/03 04:40:41;;;;;;;2.38;1.00;;;15.50;99.90;;;;;;5094494;28;20083;-70
2021/10/03 04:43:07;;;;;;;2.42;1.27;;;15.50;99.90;;;;;;5094663;28;20059;-70
2021/10/03 04:45:33;;;;;;;2.50;0.95;;;15.40;99.90;;;;;;5096210;28;20047;-70
2021/10/03 04:48:02;;;;;;;3.45;0.95;;;15.40;99.90;;;;;;5094900;28;20048;-70
2021/10/03 04:50:28;;;;;;;1.23;1.08;;;15.50;99.90;;;;;;5095993;28;20040;-70
2021/10/03 04:52:53;;;;;;;2.75;0.90;;;15.40;99.90;;;;;;5095712;28;20043;-70
2021/10/03 04:55:19;;;;;;;1.83;0.73;;;15.40;99.90;;;;;;5094695;28;20072;-70
2021/10/03 04:57:45;;;;;;;2.70;0.95;;;15.40;99.90;;;;;;5095605;28;20051;-70
2021/10/03 05:00:11;;;;;;;1.67;0.70;;;15.30;99.90;;;;;;5095418;28;20081;-70
2021/10/03 05:02:37;;;;;;;2.47;0.77;;;15.40;99.90;;;;;;5095433;28;20040;-70
2021/10/03 05:05:03;;;;;;;1.23;0.80;;;15.40;99.90;;;;;;5095572;28;20380;-70
2021/10/03 05:07:29;;;;;;;1.55;0.57;;;15.30;99.90;;;;;;5095406;28;20514;-70
2021/10/03 05:09:54;;;;;;;1.02;0.80;;;15.20;99.90;;;;;;5093849;28;20036;-70
2021/10/03 05:12:20;;;;;;;1.58;0.73;;;15.20;99.90;;;;;;5095347;28;20109;-70
2021/10/03 05:14:45;;;;;;;1.20;0.70;;;15.20;99.90;;;;;;5095575;28;20115;-70
2021/10/03 05:17:11;;;;;;;2.47;1.23;;;15.10;99.90;;;;;;5095229;28;20438;-70
2021/10/03 05:19:38;;;;;;;2.45;0.40;;;15.10;99.90;;;;;;5095233;28;20054;-70
2021/10/03 05:22:04;;;;;;;2.53;0.70;;;15.00;99.90;;;;;;5094038;28;20123;-70
2021/10/03 05:24:31;;;;;;;2.30;0.90;;;15.00;99.90;;;;;;5093924;28;20098;-70
2021/10/03 05:26:57;;;;;;;3.38;0.95;;;15.00;99.90;;;;;;5095156;28;20051;-70
2021/10/03 05:29:23;;;;;;;2.28;0.75;;;14.90;99.90;;;;;;5093470;28;20040;-70
2021/10/03 05:31:49;;;;;;;3.45;0.75;;;14.90;99.90;;;;;;5095263;28;20058;-70
2021/10/03 05:34:14;;;;;;;3.25;0.80;;;14.80;99.90;;;;;;5095499;28;20496;-70
2021/10/03 05:36:40;;;;;;;3.85;1.13;;;14.70;99.90;;;;;;5095425;28;20068;-70
2021/10/03 05:39:05;;;;;;;2.78;0.90;;;14.70;99.90;;;;;;5094543;28;20076;-70
2021/10/03 05:41:31;;;;;;;4.50;0.65;;;14.70;99.90;;;;;;5095054;28;20028;-70
2021/10/03 05:43:57;;;;;;;1.67;0.50;;;14.60;99.90;;;;;;5094773;28;20548;-70
2021/10/03 05:46:23;;;;;;;2.35;0.60;;;14.60;99.90;;;;;;5094741;28;20502;-70
2021/10/03 05:48:48;;;;;;;3.03;0.95;;;14.60;99.90;;;;;;5093159;28;20044;-70
2021/10/03 05:51:14;;;;;;;3.17;0.80;;;14.60;99.90;;;;;;5094793;28;20385;-70
2021/10/03 05:53:40;;;;;;;1.90;0.73;;;14.50;99.90;;;;;;5093797;28;20036;-70
2021/10/03 05:56:06;;;;;;;3.33;0.90;;;14.50;99.90;;;;;;5094648;28;20035;-70
2021/10/03 05:58:32;;;;;;;3.45;1.02;;;14.50;99.90;;;;;;5094119;28;20119;-70
2021/10/03 06:00:59;;;;;;;2.25;0.50;;;14.40;99.90;;;;;;5094518;28;20376;-70
2021/10/03 06:03:24;;;;;;;1.20;0.60;;;14.40;99.90;;;;;;5094560;28;20539;-70
2021/10/03 06:05:50;;;;;;;1.10;0.70;;;14.40;99.90;;;;;;5094869;28;20066;-70
2021/10/03 06:08:15;;;;;;;1.40;0.70;;;14.40;99.90;;;;;;5094602;28;20446;-70
2021/10/03 06:10:42;;;;;;;3.38;0.80;;;14.40;99.90;;;;;;5094194;28;20032;-70
2021/10/03 06:13:08;;;;;;;1.85;0.77;;;14.40;99.90;;;;;;5094021;28;20484;-70
2021/10/03 06:15:34;;;;;;;1.30;0.60;;;14.40;99.90;;;;;;5093221;28;20127;-70
2021/10/03 06:18:00;;;;;;;2.08;0.80;;;14.40;99.90;;;;;;5094038;28;20123;-70
2021/10/03 06:20:26;;;;;;;4.55;0.60;;;14.50;99.90;;;;;;5093919;28;20115;-70
2021/10/03 06:22:52;;;;;;;2.03;0.60;;;14.50;99.90;;;;;;5094249;28;20067;-70
2021/10/03 06:25:17;;;;;;;1.58;0.70;;;14.40;99.90;;;;;;5093277;28;20052;-70
2021/10/03 06:27:43;;;;;;;1.50;0.60;;;14.40;99.90;;;;;;5094290;28;20087;-70
2021/10/03 06:30:09;;;;;;;3.30;0.73;;;14.40;99.90;;;;;;5092588;28;20032;-70
2021/10/03 06:32:35;;;;;;;1.20;0.88;;;14.50;99.90;;;;;;5094092;28;20039;-70
2021/10/03 06:35:01;;;;;;;1.98;0.70;;;14.40;99.90;;;;;;5093800;28;20369;-70
2021/10/03 06:37:26;;;;;;;1.58;0.60;;;14.40;99.90;;;;;;5094180;28;20077;-70
2021/10/03 06:39:52;;;;;;;1.85;0.60;;;14.50;99.90;;;;;;5092084;28;20124;-69
2021/10/03 06:42:18;;;;;;;1.23;0.60;;;14.50;99.90;;;;;;5093927;28;20044;-69
2021/10/03 06:44:43;;;;;;;2.25;0.90;;;14.50;99.90;;;;;;5093863;28;20475;-69
2021/10/03 06:47:11;;;;;;;2.47;1.60;;;14.50;99.90;;;;;;5093675;28;20040;-69
2021/10/03 06:49:40;;;;;;;2.00;1.45;;;14.50;99.90;;;;;;5093189;28;20043;-69
2021/10/03 06:52:07;;;;;;;2.47;1.40;;;14.50;99.90;;;;;;5092271;28;20090;-69
2021/10/03 06:54:33;;;;;;;1.77;1.15;;;14.50;99.90;;;;;;5093520;28;20027;-69
2021/10/03 06:56:58;;;;;;;2.00;1.20;;;14.50;99.90;;;;;;5093458;28;20553;-69
2021/10/03 06:59:24;;;;;;;2.80;0.85;;;14.50;99.90;;;;;;5093386;28;20114;-70
2021/10/03 07:01:51;;;;;;;3.42;0.98;;;14.50;99.90;;;;;;5093336;28;20036;-69
2021/10/03 07:04:16;;;;;;;1.90;0.90;;;14.50;99.90;;;;;;5093486;28;20085;-70
2021/10/03 07:06:44;;;;;;;1.65;0.82;;;14.50;99.90;;;;;;5093276;28;20044;-69
2021/10/03 07:09:10;;;;;;;2.30;0.95;;;14.50;99.90;;;;;;5093407;28;20077;-70
2021/10/03 07:11:35;;;;;;;2.50;1.00;;;14.50;99.90;;;;;;5093112;28;20036;-69
2021/10/03 07:14:01;;;;;;;1.23;0.52;;;14.50;99.90;;;;;;5093610;28;20043;-69
2021/10/03 07:16:27;;;;;;;1.67;0.80;;;14.50;99.90;;;;;;5092003;28;20357;-70
2021/10/03 07:18:52;;;;;;;1.42;0.57;;;14.60;99.90;;;;;;5091986;28;20059;-70
2021/10/03 07:21:18;;;;;;;2.08;0.95;;;14.50;99.90;;;;;;5093171;28;20553;-70
2021/10/03 07:23:43;;;;;;;0.60;0.50;;;14.50;99.90;;;;;;5091944;28;20435;-70
2021/10/03 07:26:11;;;;;;;1.52;0.70;;;14.50;99.90;;;;;;5091903;28;20101;-70
2021/10/03 07:28:37;;;;;;;1.75;0.80;;;14.50;99.90;;;;;;5091446;28;20044;-69
2021/10/03 07:31:03;;;;;;;1.83;0.82;;;14.60;99.90;;;;;;5093577;28;20040;-70
2021/10/03 07:33:30;;;;;;;1.25;0.70;;;14.50;99.90;;;;;;5093378;28;20094;-70
2021/10/03 07:35:55;;;;;;;0.63;0.57;;;14.50;99.90;;;;;;5091773;28;20089;-70
2021/10/03 07:38:21;;;;;;;2.22;0.63;;;14.60;99.90;;;;;;5093347;28;20040;-70
2021/10/03 07:40:47;;;;;;;1.10;0.70;;;14.60;99.90;;;;;;5092740;28;20044;-69
2021/10/03 07:43:12;;;;;;;1.10;1.00;;;14.60;99.90;;;;;;5091771;28;20047;-70
2021/10/03 07:45:38;;;;;;;3.20;1.13;;;14.50;99.90;;;;;;5093114;28;20036;-69
2021/10/03 07:48:04;;;;;;;2.60;0.90;;;14.50;99.90;;;;;;5091820;28;20048;-69
2021/10/03 07:50:30;;;;;;;1.52;0.60;;;14.60;99.90;;;;;;5092888;28;20062;-70
2021/10/03 07:52:56;;;;;;;2.67;0.60;;;14.50;99.90;;;;;;5091594;28;20044;-69
2021/10/03 07:55:28;;;;;;;1.02;0.70;;;14.60;99.90;;;;;;5092817;28;20024;-69
2021/10/03 07:58:03;;;;;;;4.32;0.90;;;14.50;99.90;;;;;;5091667;28;20496;-69
2021/10/03 08:00:30;;;;;;;3.17;0.63;;;14.50;99.90;;;;;;5092503;28;20038;-69
2021/10/03 08:02:56;;;;;;;1.52;0.60;;;14.50;99.90;;;;;;5095376;28;20036;-69
2021/10/03 08:05:22;;;;;;;1.23;0.50;;;14.60;99.90;;;;;;5094414;28;20093;-69
2021/10/03 08:07:47;;;;;;;3.22;0.82;;;14.60;99.90;;;;;;5096572;28;20119;-69
2021/10/03 08:10:13;;;;;;;2.40;1.50;;;14.60;99.90;;;;;;5095777;28;20051;-71
2021/10/03 08:12:39;;;;;;;1.63;0.85;;;14.60;99.90;;;;;;5096671;28;20036;-71
2021/10/03 08:15:05;;;;;;;2.78;0.60;;;14.60;99.90;;;;;;5096313;28;20076;-69
2021/10/03 08:17:31;;;;;;;1.20;0.60;;;14.60;99.90;;;;;;5095367;28;20043;-68
2021/10/03 08:19:57;;;;;;;2.25;0.70;;;14.60;99.90;;;;;;5096091;28;20056;-70
2021/10/03 08:22:22;;;;;;;1.65;0.40;;;14.60;99.90;;;;;;5078221;28;20127;-70
2021/10/03 08:24:48;;;;;;;0.70;0.50;;;14.60;99.90;;;;;;5095483;28;20040;-70
2021/10/03 08:27:13;;;;;;;2.38;0.60;;;14.60;99.90;;;;;;5096864;28;20086;-70
2021/10/03 08:29:39;;;;;;;3.58;0.80;;;14.60;99.90;;;;;;5096225;28;20032;-71
2021/10/03 08:32:05;;;;;;;2.47;0.30;;;14.60;99.90;;;;;;5096296;28;20522;-71
2021/10/03 08:34:31;;;;;;;1.95;0.30;;;14.60;99.90;;;;;;5096506;28;20040;-71
2021/10/03 08:36:56;;;;;;;4.30;0.60;;;14.50;99.90;;;;;;5096275;28;20381;-71
2021/10/03 08:39:22;;;;;;;2.80;0.60;;;14.20;99.90;;;;;;5094743;28;20372;-71
2021/10/03 08:41:48;;;;;;;1.52;0.40;;;14.10;99.90;;;;;;5095487;28;20075;-73
2021/10/03 08:44:14;;;;;;;1.75;0.63;;;14.00;99.90;;;;;;5096165;28;20047;-73
2021/10/03 08:46:41;;;;;;;2.72;0.60;;;13.90;99.90;;;;;;5077986;28;20123;-73
2021/10/03 08:49:06;;;;;;;1.27;0.43;;;13.80;99.90;;;;;;5095744;28;20040;-73
2021/10/03 08:51:33;;;;;;;4.28;0.95;;;13.80;99.90;;;;;;5094541;28;20046;-73
2021/10/03 08:53:58;;;;;;;4.18;0.80;;;13.80;99.90;;;;;;5094631;28;20101;-72
2021/10/03 08:56:25;;;;;;;5.68;1.70;;;13.70;99.90;;;;;;5094601;28;20044;-71
2021/10/03 08:58:51;;;;;;;4.03;0.63;;;13.70;99.90;;;;;;5095598;28;20066;-72
2021/10/03 09:01:18;;;;;;;2.33;0.60;;;13.70;99.90;;;;;;5094544;28;20056;-72
2021/10/03 09:03:45;;;;;;;4.10;0.50;;;13.70;99.90;;;;;;5094608;28;20036;-72
2021/10/03 09:06:11;;;;;;;4.88;0.70;;;13.70;99.90;;;;;;5095533;28;20075;-71
2021/10/03 09:08:47;;;;;;;3.97;0.63;;;13.70;99.90;;;;;;5093934;28;20076;-73
2021/10/03 09:11:14;;;;;;;2.30;0.60;;;13.70;99.90;;;;;;5095776;28;20085;-72
2021/10/03 09:13:51;;;;;;;1.60;0.60;;;13.70;99.90;;;;;;5093907;28;20119;-72
2021/10/03 09:16:26;;;;;;;1.35;0.40;;;13.70;99.90;;;;;;5095447;28;20044;-72
2021/10/03 09:19:11;;;;;;;2.88;0.60;;;13.60;99.90;;;;;;5094299;28;20134;-72
2021/10/03 09:21:42;;;;;;;1.38;0.50;;;13.60;99.90;;;;;;5095505;28;20498;-72
2021/10/03 09:24:08;;;;;;;1.45;0.40;;;13.60;99.90;;;;;;5094508;28;20069;-72
2021/10/03 09:26:36;;;;;;;0.95;0.40;;;13.60;99.90;;;;;;5095475;28;20040;-72
2021/10/03 09:29:25;;;;;;;2.13;0.57;;;13.60;99.90;;;;;;5093471;28;20056;-72
2021/10/03 09:32:11;;;;;;;1.52;0.50;;;13.60;99.90;;;;;;5095278;28;20089;-72
2021/10/03 09:34:47;;;;;;;5.75;0.85;;;13.60;99.90;;;;;;5095093;28;20437;-72
2021/10/03 09:37:31;;;;;;;1.80;0.70;;;13.60;99.90;;;;;;5095610;28;20050;-72
2021/10/03 09:40:06;;;;;;;2.67;0.68;;;13.60;99.90;;;;;;5094590;28;20046;-72
2021/10/03 09:42:32;;;;;;;1.48;0.70;;;13.60;99.90;;;;;;5093600;28;20048;-72
2021/10/03 09:45:11;;;;;;;1.35;0.75;;;13.60;99.90;;;;;;5095116;28;20040;-73
2021/10/03 09:47:43;;;;;;;1.42;0.60;;;13.60;99.90;;;;;;5093461;28;20093;-71
2021/10/03 09:50:11;;;;;;;3.72;1.00;;;13.60;99.90;;;;;;5094603;28;20127;-72
2021/10/03 09:52:38;;;;;;;3.92;1.00;;;13.60;99.90;;;;;;5093414;28;20043;-72
2021/10/03 09:55:05;;;;;;;2.60;0.85;;;13.50;99.90;;;;;;5095009;28;20050;-71
2021/10/03 09:57:31;;;;;;;2.10;0.75;;;13.60;99.90;;;;;;5094551;28;20487;-77
2021/10/03 09:59:57;;;;;;;2.58;0.90;;;13.60;99.90;;;;;;5092929;28;20084;-72
2021/10/03 10:02:24;;;;;;;2.50;0.90;;;13.60;99.90;;;;;;5094174;28;20032;-74
2021/10/03 10:04:50;;;;;;;2.63;0.80;;;13.60;99.90;;;;;;5094668;28;20443;-73
2021/10/03 10:07:19;;;;;;;4.63;1.55;;;13.60;99.90;;;;;;5093084;28;20123;-72
2021/10/03 10:09:46;;;;;;;2.65;1.15;;;13.50;99.90;;;;;;5093937;28;20567;-73
2021/10/03 10:12:15;;;;;;;2.33;1.13;;;13.60;99.90;;;;;;5094384;28;20083;-73
2021/10/03 10:14:45;;;;;;;2.67;1.20;;;13.60;99.90;;;;;;5092963;28;20078;-73
2021/10/03 10:17:31;;;;;;;3.13;1.52;;;13.70;99.90;;;;;;5094318;28;20381;-73
2021/10/03 10:20:03;;;;;;;1.65;1.27;;;13.70;99.90;;;;;;5092793;28;20044;-73
2021/10/03 10:22:35;;;;;;;5.35;1.40;;;13.70;99.90;;;;;;5094236;28;20047;-73
2021/10/03 10:25:06;;;;;;;3.13;1.13;;;13.70;99.90;;;;;;5093366;28;20075;-73
2021/10/03 10:27:38;;;;;;;3.45;1.52;;;13.80;99.90;;;;;;5092885;28;20395;-73
2021/10/03 10:30:11;;;;;;;4.68;1.35;;;13.80;99.90;;;;;;5093790;28;20127;-73
2021/10/03 10:32:55;;;;;;;2.13;1.20;;;13.90;99.90;;;;;;5092729;28;20072;-73
2021/10/03 10:35:28;;;;;;;2.72;1.73;;;13.90;99.90;;;;;;5093956;28;20055;-73
2021/10/03 10:37:56;;;;;;;;;;;13.90;99.90;;;;;;5094968;28;20123;-73
2021/10/03 10:40:25;;;;;;;2.38;1.55;;;14.00;99.90;;;;;;5093638;28;19916;-73
2021/10/03 10:43:03;;;;;;;3.72;1.83;;;14.00;99.90;;;;;;5093905;28;20225;-73
2021/10/03 10:45:41;;;;;;;2.38;1.20;;;14.00;99.90;;;;;;5093929;28;20493;-72
2021/10/03 10:48:07;;;;;;;3.25;1.30;;;14.00;99.90;;;;;;5094137;28;20040;-72
2021/10/03 10:50:52;;;;;;;2.35;0.82;;;14.00;99.90;;;;;;5092232;28;20379;-72
2021/10/03 10:53:32;;;;;;;2.47;1.50;;;14.10;99.90;;;;;;5093140;28;20052;-73
2021/10/03 10:56:16;;;;;;;2.45;1.08;;;14.00;99.90;;;;;;5093736;28;20036;-73
2021/10/03 10:58:51;;;;;;;2.13;0.90;;;14.00;99.90;;;;;;5093100;28;20431;-73
2021/10/03 11:01:46;;;;;;;1.60;1.20;;;14.10;99.90;;;;;;5092237;28;20072;-73
2021/10/03 11:04:23;;;;;;;1.60;1.10;;;14.10;99.90;;;;;;5087554;28;20054;-74
2021/10/03 11:06:48;;;;;;;3.47;1.20;;;14.10;99.90;;;;;;5093237;28;20040;-73
2021/10/03 11:09:16;;;;;;;1.75;1.23;;;14.10;99.90;;;;;;5094167;28;20516;-73
2021/10/03 11:11:53;;;;;;;1.55;1.35;;;14.00;99.90;;;;;;5093633;28;20047;-73
2021/10/03 11:14:21;;;;;;;3.30;1.30;;;14.10;99.90;;;;;;5092200;28;20044;-73
2021/10/03 11:16:50;;;;;;;3.15;1.00;;;14.10;99.90;;;;;;5093489;28;20067;-76
2021/10/03 11:19:37;;;;;;;3.13;1.42;;;14.10;99.90;;;;;;5093003;28;20039;-74
2021/10/03 11:22:08;;;;;;;3.10;1.02;;;14.10;99.90;;;;;;5093187;28;20388;-73
2021/10/03 11:24:47;;;;;;;1.60;1.30;;;14.20;99.90;;;;;;5092278;28;20032;-73
2021/10/03 11:27:33;;;;;;;1.92;0.90;;;14.20;99.90;;;;;;5093255;28;20052;-74
2021/10/03 11:30:00;;;;;;;1.23;0.68;;;14.20;99.90;;;;;;5092776;28;20047;-73
2021/10/03 11:32:37;;;;;;;2.42;0.80;;;14.20;99.90;;;;;;5093408;28;20057;-74
2021/10/03 11:35:12;;;;;;;1.48;0.82;;;14.20;99.90;;;;;;5093322;28;20071;-73
2021/10/03 11:37:48;;;;;;;1.77;1.02;;;14.20;99.90;;;;;;5097227;28;20123;-73
2021/10/03 11:40:17;;;;;;;5.93;3.88;;;14.20;99.90;;;;;;5097012;28;20489;-73
2021/10/03 11:42:50;;;;;;;5.07;3.03;;;14.10;99.90;;;;;;5096186;28;20070;-73
2021/10/03 11:45:33;;;;;;;2.45;1.83;;;14.10;99.90;;;;;;5097413;28;20551;-74
2021/10/03 11:48:07;;;;;;;2.85;2.00;;;14.10;99.90;;;;;;5097651;28;20056;-73
2021/10/03 11:50:33;;;;;;;1.80;1.40;;;14.10;99.90;;;;;;5096810;28;20134;-73
2021/10/03 11:53:28;;;;;;;3.17;1.25;;;14.20;99.90;;;;;;5097125;28;20071;-73
2021/10/03 11:56:05;;;;;;;2.28;1.40;;;14.20;99.90;;;;;;5097656;28;20106;-73
2021/10/03 11:58:35;;;;;;;3.38;1.20;;;14.30;99.90;;;;;;5096911;28;20043;-74
2021/10/03 12:01:01;;;;;;;1.48;1.10;;;14.10;99.90;;;;;;5096992;28;20044;-74
2021/10/03 12:03:30;;;;;;;2.10;1.42;;;14.20;99.90;;;;;;5095548;28;20403;-73
2021/10/03 12:06:15;;;;;;;2.22;1.33;;;14.20;99.90;;;;;;5096938;28;20069;-74
2021/10/03 12:08:40;;;;;;;3.22;1.48;;;14.20;99.90;;;;;;5096582;28;20085;-74
2021/10/03 12:11:06;;;;;;;2.60;0.95;;;14.20;99.90;;;;;;5078485;28;20043;-75
2021/10/03 12:13:33;;;;;;;2.00;1.20;;;14.20;99.90;;;;;;5097573;28;20032;-74
2021/10/03 12:16:02;;;;;;;1.38;1.27;;;14.20;99.90;;;;;;5096474;28;20040;-74
2021/10/03 12:18:28;;;;;;;1.50;0.98;;;14.20;99.90;;;;;;5096440;28;20468;-75
2021/10/03 12:21:00;;;;;;;1.25;0.98;;;14.30;99.90;;;;;;5096596;28;20036;-75
2021/10/03 12:23:46;;;;;;;2.00;1.23;;;14.20;99.90;;;;;;5097164;28;20039;-73
2021/10/03 12:26:25;;;;;;;1.80;0.90;;;14.20;99.90;;;;;;5096625;28;20123;-72
2021/10/03 12:28:51;;;;;;;1.75;1.15;;;14.20;99.90;;;;;;5095009;28;20487;-72
2021/10/03 12:31:34;;;;;;;2.05;1.10;;;14.20;99.90;;;;;;5095299;28;20044;-72
2021/10/03 12:34:21;;;;;;;2.67;1.05;;;14.20;99.90;;;;;;5096703;28;20051;-72
2021/10/03 12:36:49;;;;;;;2.10;1.42;;;14.20;99.90;;;;;;5091156;28;20055;-71
2021/10/03 12:39:22;;;;;;;1.20;1.10;;;14.20;99.90;;;;;;5094918;28;20042;-72
2021/10/03 12:41:48;;;;;;;2.10;1.60;;;14.30;99.90;;;;;;5096371;28;20044;-71
2021/10/03 12:44:15;;;;;;;2.53;1.45;;;14.30;99.90;;;;;;5096180;28;20028;-72
2021/10/03 12:46:40;;;;;;;2.63;2.10;;;14.30;99.90;;;;;;5095027;28;20127;-73
2021/10/03 12:49:06;;;;;;;0.90;0.60;;;14.30;99.90;;;;;;5093499;28;20086;-74
2021/10/03 12:51:32;;;;;;;0.93;0.45;;;14.50;99.90;;;;;;5095912;28;20043;-74